sensor_id;sensor_type;location;lat;lon;timestamp;P1;durP1;ratioP1;P2;durP2;ratioP2
8791;SDS011;4432;50.890;4.744;2022-08-27T00:00:14;7.67;;;1.97;;
8791;SDS011;4432;50.890;4.744;2022-08-27T00:02:42;3.17;;;1.63;;
8791;SDS011;4432;50.890;4.744;2022-08-27T00:05:09;2.17;;;1.60;;
8791;SDS011;4432;50.890;4.744;2022-08-27T00:07:36;4.53;;;2.00;;
8791;SDS011;4432;50.890;4.744;2022-08-27T00:10:03;3.73;;;1.60;;
8791;SDS011;4432;50.890;4.744;2022-08-27T00:12:32;3.97;;;1.90;;
8791;SDS011;4432;50.890;4.744;2022-08-27T00:14:58;1.97;;;1.60;;
8791;SDS011;4432;50.890;4.744;2022-08-27T00:17:24;4.60;;;1.97;;
8791;SDS011;4432;50.890;4.744;2022-08-27T00:19:50;3.50;;;1.80;;
8791;SDS011;4432;50.890;4.744;2022-08-27T00:22:16;2.57;;;1.50;;
8791;SDS011;4432;50.890;4.744;2022-08-27T00:24:42;2.23;;;1.90;;
8791;SDS011;4432;50.890;4.744;2022-08-27T00:27:07;5.00;;;1.67;;
8791;SDS011;4432;50.890;4.744;2022-08-27T00:29:33;2.70;;;1.83;;
8791;SDS011;4432;50.890;4.744;2022-08-27T00:31:59;1.67;;;1.57;;
8791;SDS011;4432;50.890;4.744;2022-08-27T00:34:24;3.50;;;1.93;;
8791;SDS011;4432;50.890;4.744;2022-08-27T00:36:50;4.50;;;1.70;;
8791;SDS011;4432;50.890;4.744;2022-08-27T00:39:17;2.03;;;1.50;;
8791;SDS011;4432;50.890;4.744;2022-08-27T00:41:43;2.60;;;1.80;;
8791;SDS011;4432;50.890;4.744;2022-08-27T00:44:09;2.53;;;1.80;;
8791;SDS011;4432;50.890;4.744;2022-08-27T00:46:41;1.87;;;1.50;;
8791;SDS011;4432;50.890;4.744;2022-08-27T00:49:16;3.33;;;1.97;;
8791;SDS011;4432;50.890;4.744;2022-08-27T00:51:49;4.47;;;1.80;;
8791;SDS011;4432;50.890;4.744;2022-08-27T00:54:19;3.83;;;2.03;;
8791;SDS011;4432;50.890;4.744;2022-08-27T00:56:45;4.33;;;1.83;;
8791;SDS011;4432;50.890;4.744;2022-08-27T00:59:13;5.27;;;1.90;;
8791;SDS011;4432;50.890;4.744;2022-08-27T01:01:41;4.23;;;1.90;;
8791;SDS011;4432;50.890;4.744;2022-08-27T01:04:28;3.13;;;1.80;;
8791;SDS011;4432;50.890;4.744;2022-08-27T01:06:56;6.13;;;1.77;;
8791;SDS011;4432;50.890;4.744;2022-08-27T01:09:23;4.93;;;2.10;;
8791;SDS011;4432;50.890;4.744;2022-08-27T01:11:51;2.73;;;1.70;;
8791;SDS011;4432;50.890;4.744;2022-08-27T01:14:18;3.17;;;1.90;;
8791;SDS011;4432;50.890;4.744;2022-08-27T01:16:46;3.37;;;1.97;;
8791;SDS011;4432;50.890;4.744;2022-08-27T01:19:36;3.07;;;1.63;;
8791;SDS011;4432;50.890;4.744;2022-08-27T01:25:07;2.17;;;1.73;;
8791;SDS011;4432;50.890;4.744;2022-08-27T01:27:35;4.93;;;1.90;;
8791;SDS011;4432;50.890;4.744;2022-08-27T01:30:02;6.73;;;2.40;;
8791;SDS011;4432;50.890;4.744;2022-08-27T01:32:30;4.20;;;2.00;;
8791;SDS011;4432;50.890;4.744;2022-08-27T01:34:58;2.00;;;1.70;;
8791;SDS011;4432;50.890;4.744;2022-08-27T01:37:25;4.70;;;2.00;;
8791;SDS011;4432;50.890;4.744;2022-08-27T01:39:53;2.03;;;1.80;;
8791;SDS011;4432;50.890;4.744;2022-08-27T01:42:33;4.37;;;1.93;;
8791;SDS011;4432;50.890;4.744;2022-08-27T01:45:05;9.00;;;2.50;;
8791;SDS011;4432;50.890;4.744;2022-08-27T01:47:43;4.53;;;1.93;;
8791;SDS011;4432;50.890;4.744;2022-08-27T01:50:11;2.73;;;1.93;;
8791;SDS011;4432;50.890;4.744;2022-08-27T01:52:39;5.17;;;1.97;;
8791;SDS011;4432;50.890;4.744;2022-08-27T01:55:07;3.57;;;1.97;;
8791;SDS011;4432;50.890;4.744;2022-08-27T01:57:34;2.07;;;1.60;;
8791;SDS011;4432;50.890;4.744;2022-08-27T02:00:04;4.70;;;2.03;;
8791;SDS011;4432;50.890;4.744;2022-08-27T02:02:32;2.37;;;1.80;;
8791;SDS011;4432;50.890;4.744;2022-08-27T02:04:58;4.63;;;2.10;;
8791;SDS011;4432;50.890;4.744;2022-08-27T02:07:23;5.97;;;2.17;;
8791;SDS011;4432;50.890;4.744;2022-08-27T02:09:49;2.87;;;1.80;;
8791;SDS011;4432;50.890;4.744;2022-08-27T02:12:16;2.80;;;1.87;;
8791;SDS011;4432;50.890;4.744;2022-08-27T02:14:41;3.17;;;1.90;;
8791;SDS011;4432;50.890;4.744;2022-08-27T02:17:07;3.73;;;2.13;;
8791;SDS011;4432;50.890;4.744;2022-08-27T02:19:33;4.37;;;2.10;;
8791;SDS011;4432;50.890;4.744;2022-08-27T02:21:59;4.43;;;1.97;;
8791;SDS011;4432;50.890;4.744;2022-08-27T02:24:26;4.67;;;2.00;;
8791;SDS011;4432;50.890;4.744;2022-08-27T02:26:52;6.73;;;2.00;;
8791;SDS011;4432;50.890;4.744;2022-08-27T02:29:19;2.70;;;1.77;;
8791;SDS011;4432;50.890;4.744;2022-08-27T02:31:46;3.87;;;1.73;;
8791;SDS011;4432;50.890;4.744;2022-08-27T02:34:12;4.00;;;2.13;;
8791;SDS011;4432;50.890;4.744;2022-08-27T02:36:37;7.27;;;2.03;;
8791;SDS011;4432;50.890;4.744;2022-08-27T02:39:04;3.63;;;1.87;;
8791;SDS011;4432;50.890;4.744;2022-08-27T02:41:30;2.73;;;1.83;;
8791;SDS011;4432;50.890;4.744;2022-08-27T02:43:56;1.80;;;1.70;;
8791;SDS011;4432;50.890;4.744;2022-08-27T02:46:22;5.77;;;1.90;;
8791;SDS011;4432;50.890;4.744;2022-08-27T02:48:48;2.00;;;1.80;;
8791;SDS011;4432;50.890;4.744;2022-08-27T02:51:14;5.87;;;1.90;;
8791;SDS011;4432;50.890;4.744;2022-08-27T02:53:40;4.47;;;2.00;;
8791;SDS011;4432;50.890;4.744;2022-08-27T02:56:08;6.33;;;2.13;;
8791;SDS011;4432;50.890;4.744;2022-08-27T02:58:34;4.80;;;2.03;;
8791;SDS011;4432;50.890;4.744;2022-08-27T03:01:01;2.10;;;1.60;;
8791;SDS011;4432;50.890;4.744;2022-08-27T03:03:27;6.03;;;2.20;;
8791;SDS011;4432;50.890;4.744;2022-08-27T03:05:54;2.80;;;1.97;;
8791;SDS011;4432;50.890;4.744;2022-08-27T03:08:22;5.60;;;1.83;;
8791;SDS011;4432;50.890;4.744;2022-08-27T03:10:48;2.10;;;1.67;;
8791;SDS011;4432;50.890;4.744;2022-08-27T03:13:15;2.93;;;1.83;;
8791;SDS011;4432;50.890;4.744;2022-08-27T03:15:41;2.63;;;1.97;;
8791;SDS011;4432;50.890;4.744;2022-08-27T03:18:07;4.17;;;2.00;;
8791;SDS011;4432;50.890;4.744;2022-08-27T03:20:42;2.07;;;1.80;;
8791;SDS011;4432;50.890;4.744;2022-08-27T03:23:14;4.47;;;2.40;;
8791;SDS011;4432;50.890;4.744;2022-08-27T03:25:42;2.63;;;2.10;;
8791;SDS011;4432;50.890;4.744;2022-08-27T03:28:11;2.93;;;2.17;;
8791;SDS011;4432;50.890;4.744;2022-08-27T03:30:39;2.63;;;1.80;;
8791;SDS011;4432;50.890;4.744;2022-08-27T03:33:06;3.03;;;1.97;;
8791;SDS011;4432;50.890;4.744;2022-08-27T03:35:32;6.50;;;2.17;;
8791;SDS011;4432;50.890;4.744;2022-08-27T03:37:58;2.10;;;1.87;;
8791;SDS011;4432;50.890;4.744;2022-08-27T03:40:23;2.13;;;1.80;;
8791;SDS011;4432;50.890;4.744;2022-08-27T03:42:49;3.00;;;1.70;;
8791;SDS011;4432;50.890;4.744;2022-08-27T03:45:15;3.57;;;2.07;;
8791;SDS011;4432;50.890;4.744;2022-08-27T03:47:41;3.67;;;2.20;;
8791;SDS011;4432;50.890;4.744;2022-08-27T03:50:07;2.47;;;2.20;;
8791;SDS011;4432;50.890;4.744;2022-08-27T03:52:33;3.43;;;2.10;;
8791;SDS011;4432;50.890;4.744;2022-08-27T03:54:59;4.07;;;2.13;;
8791;SDS011;4432;50.890;4.744;2022-08-27T03:57:26;2.80;;;2.30;;
8791;SDS011;4432;50.890;4.744;2022-08-27T03:59:51;3.37;;;2.17;;
8791;SDS011;4432;50.890;4.744;2022-08-27T04:02:17;2.13;;;1.93;;
8791;SDS011;4432;50.890;4.744;2022-08-27T04:04:43;6.27;;;2.47;;
8791;SDS011;4432;50.890;4.744;2022-08-27T04:07:09;4.10;;;2.03;;
8791;SDS011;4432;50.890;4.744;2022-08-27T04:09:35;3.57;;;2.20;;
8791;SDS011;4432;50.890;4.744;2022-08-27T04:12:00;3.47;;;2.00;;
8791;SDS011;4432;50.890;4.744;2022-08-27T04:14:26;2.77;;;2.10;;
8791;SDS011;4432;50.890;4.744;2022-08-27T04:16:53;5.67;;;2.27;;
8791;SDS011;4432;50.890;4.744;2022-08-27T04:19:20;3.87;;;2.30;;
8791;SDS011;4432;50.890;4.744;2022-08-27T04:21:46;4.40;;;3.00;;
8791;SDS011;4432;50.890;4.744;2022-08-27T04:24:12;4.60;;;2.33;;
8791;SDS011;4432;50.890;4.744;2022-08-27T04:26:38;3.33;;;2.20;;
8791;SDS011;4432;50.890;4.744;2022-08-27T04:29:05;7.23;;;2.30;;
8791;SDS011;4432;50.890;4.744;2022-08-27T04:31:31;3.03;;;2.43;;
8791;SDS011;4432;50.890;4.744;2022-08-27T04:33:57;4.03;;;2.40;;
8791;SDS011;4432;50.890;4.744;2022-08-27T04:36:22;7.43;;;2.80;;
8791;SDS011;4432;50.890;4.744;2022-08-27T04:38:48;6.63;;;2.03;;
8791;SDS011;4432;50.890;4.744;2022-08-27T04:41:14;4.30;;;2.33;;
8791;SDS011;4432;50.890;4.744;2022-08-27T04:46:25;4.00;;;2.00;;
8791;SDS011;4432;50.890;4.744;2022-08-27T04:48:54;2.70;;;2.27;;
8791;SDS011;4432;50.890;4.744;2022-08-27T04:51:24;5.87;;;2.53;;
8791;SDS011;4432;50.890;4.744;2022-08-27T04:53:50;7.37;;;2.30;;
8791;SDS011;4432;50.890;4.744;2022-08-27T04:56:17;3.03;;;2.03;;
8791;SDS011;4432;50.890;4.744;2022-08-27T04:58:46;3.13;;;2.30;;
8791;SDS011;4432;50.890;4.744;2022-08-27T05:01:19;6.73;;;2.60;;
8791;SDS011;4432;50.890;4.744;2022-08-27T05:03:47;4.50;;;2.70;;
8791;SDS011;4432;50.890;4.744;2022-08-27T05:06:13;4.70;;;2.20;;
8791;SDS011;4432;50.890;4.744;2022-08-27T05:08:39;6.97;;;3.07;;
8791;SDS011;4432;50.890;4.744;2022-08-27T05:11:06;4.57;;;2.50;;
8791;SDS011;4432;50.890;4.744;2022-08-27T05:13:34;5.60;;;2.23;;
8791;SDS011;4432;50.890;4.744;2022-08-27T05:16:03;4.97;;;2.50;;
8791;SDS011;4432;50.890;4.744;2022-08-27T05:18:34;4.83;;;2.50;;
8791;SDS011;4432;50.890;4.744;2022-08-27T05:21:00;4.93;;;2.30;;
8791;SDS011;4432;50.890;4.744;2022-08-27T05:23:27;2.57;;;2.37;;
8791;SDS011;4432;50.890;4.744;2022-08-27T05:25:53;3.57;;;2.33;;
8791;SDS011;4432;50.890;4.744;2022-08-27T05:28:20;2.43;;;2.23;;
8791;SDS011;4432;50.890;4.744;2022-08-27T05:30:51;4.37;;;2.30;;
8791;SDS011;4432;50.890;4.744;2022-08-27T05:33:22;5.10;;;2.17;;
8791;SDS011;4432;50.890;4.744;2022-08-27T05:35:50;5.50;;;2.13;;
8791;SDS011;4432;50.890;4.744;2022-08-27T05:38:18;4.23;;;2.80;;
8791;SDS011;4432;50.890;4.744;2022-08-27T05:40:44;3.73;;;2.63;;
8791;SDS011;4432;50.890;4.744;2022-08-27T05:43:14;3.63;;;2.30;;
8791;SDS011;4432;50.890;4.744;2022-08-27T05:45:42;4.63;;;2.50;;
8791;SDS011;4432;50.890;4.744;2022-08-27T05:48:10;8.23;;;2.40;;
8791;SDS011;4432;50.890;4.744;2022-08-27T05:50:37;3.40;;;2.50;;
8791;SDS011;4432;50.890;4.744;2022-08-27T05:53:04;2.40;;;2.20;;
8791;SDS011;4432;50.890;4.744;2022-08-27T05:55:38;2.67;;;2.43;;
8791;SDS011;4432;50.890;4.744;2022-08-27T05:58:06;5.13;;;2.60;;
8791;SDS011;4432;50.890;4.744;2022-08-27T06:00:35;2.70;;;2.27;;
8791;SDS011;4432;50.890;4.744;2022-08-27T06:03:20;5.53;;;2.73;;
8791;SDS011;4432;50.890;4.744;2022-08-27T06:05:46;4.63;;;2.53;;
8791;SDS011;4432;50.890;4.744;2022-08-27T06:08:12;3.80;;;2.30;;
8791;SDS011;4432;50.890;4.744;2022-08-27T06:10:40;6.20;;;2.67;;
8791;SDS011;4432;50.890;4.744;2022-08-27T06:13:07;4.50;;;2.83;;
8791;SDS011;4432;50.890;4.744;2022-08-27T06:15:33;4.00;;;2.60;;
8791;SDS011;4432;50.890;4.744;2022-08-27T06:17:59;3.50;;;2.83;;
8791;SDS011;4432;50.890;4.744;2022-08-27T06:20:25;6.77;;;2.67;;
8791;SDS011;4432;50.890;4.744;2022-08-27T06:22:51;6.30;;;2.57;;
8791;SDS011;4432;50.890;4.744;2022-08-27T06:25:17;3.87;;;2.63;;
8791;SDS011;4432;50.890;4.744;2022-08-27T06:27:42;4.57;;;2.73;;
8791;SDS011;4432;50.890;4.744;2022-08-27T06:30:08;2.97;;;2.60;;
8791;SDS011;4432;50.890;4.744;2022-08-27T06:32:34;3.30;;;2.17;;
8791;SDS011;4432;50.890;4.744;2022-08-27T06:35:00;7.33;;;2.80;;
8791;SDS011;4432;50.890;4.744;2022-08-27T06:37:26;3.73;;;2.33;;
8791;SDS011;4432;50.890;4.744;2022-08-27T06:39:53;2.70;;;2.20;;
8791;SDS011;4432;50.890;4.744;2022-08-27T06:42:19;4.93;;;2.50;;
8791;SDS011;4432;50.890;4.744;2022-08-27T06:44:44;4.00;;;2.23;;
8791;SDS011;4432;50.890;4.744;2022-08-27T06:47:10;3.97;;;2.13;;
8791;SDS011;4432;50.890;4.744;2022-08-27T06:49:37;2.50;;;2.30;;
8791;SDS011;4432;50.890;4.744;2022-08-27T06:52:04;2.57;;;1.90;;
8791;SDS011;4432;50.890;4.744;2022-08-27T06:54:30;2.73;;;2.10;;
8791;SDS011;4432;50.890;4.744;2022-08-27T06:56:57;2.20;;;2.00;;
8791;SDS011;4432;50.890;4.744;2022-08-27T06:59:24;5.93;;;2.20;;
8791;SDS011;4432;50.890;4.744;2022-08-27T07:01:50;8.40;;;1.90;;
8791;SDS011;4432;50.890;4.744;2022-08-27T07:04:18;6.50;;;2.43;;
8791;SDS011;4432;50.890;4.744;2022-08-27T07:06:46;3.73;;;2.23;;
8791;SDS011;4432;50.890;4.744;2022-08-27T07:09:12;3.37;;;2.00;;
8791;SDS011;4432;50.890;4.744;2022-08-27T07:11:38;3.13;;;1.97;;
8791;SDS011;4432;50.890;4.744;2022-08-27T07:14:05;6.63;;;1.97;;
8791;SDS011;4432;50.890;4.744;2022-08-27T07:16:32;3.77;;;1.83;;
8791;SDS011;4432;50.890;4.744;2022-08-27T07:18:59;2.90;;;1.93;;
8791;SDS011;4432;50.890;4.744;2022-08-27T07:21:26;1.83;;;1.53;;
8791;SDS011;4432;50.890;4.744;2022-08-27T07:23:53;3.27;;;1.97;;
8791;SDS011;4432;50.890;4.744;2022-08-27T07:26:20;3.60;;;1.83;;
8791;SDS011;4432;50.890;4.744;2022-08-27T07:28:47;2.37;;;1.63;;
8791;SDS011;4432;50.890;4.744;2022-08-27T07:31:15;2.80;;;1.70;;
8791;SDS011;4432;50.890;4.744;2022-08-27T07:33:43;4.57;;;1.93;;
8791;SDS011;4432;50.890;4.744;2022-08-27T07:36:09;6.20;;;1.73;;
8791;SDS011;4432;50.890;4.744;2022-08-27T07:38:36;6.03;;;1.90;;
8791;SDS011;4432;50.890;4.744;2022-08-27T07:41:05;4.80;;;1.53;;
8791;SDS011;4432;50.890;4.744;2022-08-27T07:43:33;3.50;;;1.73;;
8791;SDS011;4432;50.890;4.744;2022-08-27T07:46:17;3.27;;;1.90;;
8791;SDS011;4432;50.890;4.744;2022-08-27T07:48:46;3.43;;;1.57;;
8791;SDS011;4432;50.890;4.744;2022-08-27T07:51:13;2.60;;;1.63;;
8791;SDS011;4432;50.890;4.744;2022-08-27T07:53:41;3.27;;;1.80;;
8791;SDS011;4432;50.890;4.744;2022-08-27T07:56:08;4.07;;;1.70;;
8791;SDS011;4432;50.890;4.744;2022-08-27T07:58:34;2.50;;;1.67;;
8791;SDS011;4432;50.890;4.744;2022-08-27T08:01:00;3.47;;;1.70;;
8791;SDS011;4432;50.890;4.744;2022-08-27T08:03:26;3.50;;;1.60;;
8791;SDS011;4432;50.890;4.744;2022-08-27T08:05:52;3.60;;;1.70;;
8791;SDS011;4432;50.890;4.744;2022-08-27T08:08:19;2.87;;;1.50;;
8791;SDS011;4432;50.890;4.744;2022-08-27T08:10:46;6.87;;;1.77;;
8791;SDS011;4432;50.890;4.744;2022-08-27T08:13:13;3.07;;;1.60;;
8791;SDS011;4432;50.890;4.744;2022-08-27T08:15:42;3.97;;;1.37;;
8791;SDS011;4432;50.890;4.744;2022-08-27T08:18:08;2.13;;;1.60;;
8791;SDS011;4432;50.890;4.744;2022-08-27T08:20:34;4.53;;;1.80;;
8791;SDS011;4432;50.890;4.744;2022-08-27T08:23:00;3.17;;;1.60;;
8791;SDS011;4432;50.890;4.744;2022-08-27T08:25:27;3.90;;;1.73;;
8791;SDS011;4432;50.890;4.744;2022-08-27T08:27:53;1.40;;;1.30;;
8791;SDS011;4432;50.890;4.744;2022-08-27T08:30:19;4.63;;;1.73;;
8791;SDS011;4432;50.890;4.744;2022-08-27T08:32:45;4.20;;;1.87;;
8791;SDS011;4432;50.890;4.744;2022-08-27T08:35:11;2.30;;;1.53;;
8791;SDS011;4432;50.890;4.744;2022-08-27T08:37:37;7.73;;;1.47;;
8791;SDS011;4432;50.890;4.744;2022-08-27T08:40:03;2.80;;;1.60;;
8791;SDS011;4432;50.890;4.744;2022-08-27T08:42:44;2.83;;;1.60;;
8791;SDS011;4432;50.890;4.744;2022-08-27T08:45:15;5.63;;;1.63;;
8791;SDS011;4432;50.890;4.744;2022-08-27T08:48:22;1.93;;;1.33;;
8791;SDS011;4432;50.890;4.744;2022-08-27T08:53:41;1.93;;;1.53;;
8791;SDS011;4432;50.890;4.744;2022-08-27T08:56:39;3.30;;;1.30;;
8791;SDS011;4432;50.890;4.744;2022-08-27T08:59:27;3.43;;;1.37;;
8791;SDS011;4432;50.890;4.744;2022-08-27T09:01:57;3.27;;;1.40;;
8791;SDS011;4432;50.890;4.744;2022-08-27T09:04:24;2.10;;;1.50;;
8791;SDS011;4432;50.890;4.744;2022-08-27T09:07:09;2.07;;;1.30;;
8791;SDS011;4432;50.890;4.744;2022-08-27T09:12:16;1.30;;;1.10;;
8791;SDS011;4432;50.890;4.744;2022-08-27T09:14:54;1.50;;;1.10;;
8791;SDS011;4432;50.890;4.744;2022-08-27T09:17:39;1.10;;;1.00;;
8791;SDS011;4432;50.890;4.744;2022-08-27T09:20:06;1.50;;;1.20;;
8791;SDS011;4432;50.890;4.744;2022-08-27T09:22:56;3.40;;;1.27;;
8791;SDS011;4432;50.890;4.744;2022-08-27T09:25:36;1.03;;;1.00;;
8791;SDS011;4432;50.890;4.744;2022-08-27T09:28:12;3.23;;;1.50;;
8791;SDS011;4432;50.890;4.744;2022-08-27T09:31:01;4.30;;;1.33;;
8791;SDS011;4432;50.890;4.744;2022-08-27T09:33:29;3.50;;;1.07;;
8791;SDS011;4432;50.890;4.744;2022-08-27T09:35:55;1.37;;;1.20;;
8791;SDS011;4432;50.890;4.744;2022-08-27T09:38:31;3.53;;;1.00;;
8791;SDS011;4432;50.890;4.744;2022-08-27T09:41:00;0.90;;;0.90;;
8791;SDS011;4432;50.890;4.744;2022-08-27T09:43:30;3.80;;;1.33;;
8791;SDS011;4432;50.890;4.744;2022-08-27T09:45:57;1.07;;;0.93;;
8791;SDS011;4432;50.890;4.744;2022-08-27T09:48:39;1.33;;;0.90;;
8791;SDS011;4432;50.890;4.744;2022-08-27T09:51:06;0.77;;;0.77;;
8791;SDS011;4432;50.890;4.744;2022-08-27T09:54:08;3.23;;;1.00;;
8791;SDS011;4432;50.890;4.744;2022-08-27T09:56:36;1.97;;;1.40;;
8791;SDS011;4432;50.890;4.744;2022-08-27T10:01:55;1.33;;;1.10;;
8791;SDS011;4432;50.890;4.744;2022-08-27T10:07:24;1.47;;;1.00;;
8791;SDS011;4432;50.890;4.744;2022-08-27T10:10:03;1.10;;;0.97;;
8791;SDS011;4432;50.890;4.744;2022-08-27T10:12:32;1.20;;;1.10;;
8791;SDS011;4432;50.890;4.744;2022-08-27T10:15:04;1.90;;;1.20;;
8791;SDS011;4432;50.890;4.744;2022-08-27T10:17:41;5.53;;;1.30;;
8791;SDS011;4432;50.890;4.744;2022-08-27T10:20:57;1.23;;;1.10;;
8791;SDS011;4432;50.890;4.744;2022-08-27T10:26:33;2.90;;;1.63;;
8791;SDS011;4432;50.890;4.744;2022-08-27T10:48:36;2.97;;;1.40;;
8791;SDS011;4432;50.890;4.744;2022-08-27T10:51:28;2.53;;;1.10;;
8791;SDS011;4432;50.890;4.744;2022-08-27T10:56:32;2.70;;;1.10;;
8791;SDS011;4432;50.890;4.744;2022-08-27T11:01:59;3.27;;;1.10;;
8791;SDS011;4432;50.890;4.744;2022-08-27T11:04:31;2.40;;;1.50;;
8791;SDS011;4432;50.890;4.744;2022-08-27T11:07:24;1.60;;;1.40;;
8791;SDS011;4432;50.890;4.744;2022-08-27T11:09:58;1.20;;;1.00;;
8791;SDS011;4432;50.890;4.744;2022-08-27T11:12:39;2.47;;;1.07;;
8791;SDS011;4432;50.890;4.744;2022-08-27T11:15:17;2.97;;;1.10;;
8791;SDS011;4432;50.890;4.744;2022-08-27T11:18:03;1.33;;;1.00;;
8791;SDS011;4432;50.890;4.744;2022-08-27T11:20:36;3.73;;;1.23;;
8791;SDS011;4432;50.890;4.744;2022-08-27T11:23:22;2.37;;;1.20;;
8791;SDS011;4432;50.890;4.744;2022-08-27T11:25:57;1.40;;;1.20;;
8791;SDS011;4432;50.890;4.744;2022-08-27T11:28:28;1.20;;;1.10;;
8791;SDS011;4432;50.890;4.744;2022-08-27T11:44:46;1.93;;;1.23;;
8791;SDS011;4432;50.890;4.744;2022-08-27T11:47:20;2.33;;;1.47;;
8791;SDS011;4432;50.890;4.744;2022-08-27T11:49:50;4.27;;;1.30;;
8791;SDS011;4432;50.890;4.744;2022-08-27T11:54:56;3.93;;;1.47;;
8791;SDS011;4432;50.890;4.744;2022-08-27T12:00:42;1.83;;;1.20;;
8791;SDS011;4432;50.890;4.744;2022-08-27T12:27:14;3.30;;;1.67;;
8791;SDS011;4432;50.890;4.744;2022-08-27T12:29:45;1.90;;;1.27;;
8791;SDS011;4432;50.890;4.744;2022-08-27T12:38:21;2.10;;;1.40;;
8791;SDS011;4432;50.890;4.744;2022-08-27T12:40:45;1.87;;;1.43;;
8791;SDS011;4432;50.890;4.744;2022-08-27T12:43:13;3.53;;;1.30;;
8791;SDS011;4432;50.890;4.744;2022-08-27T12:45:50;3.03;;;1.50;;
8791;SDS011;4432;50.890;4.744;2022-08-27T12:48:23;2.77;;;1.40;;
8791;SDS011;4432;50.890;4.744;2022-08-27T12:50:53;1.87;;;1.60;;
8791;SDS011;4432;50.890;4.744;2022-08-27T12:53:25;4.13;;;1.73;;
8791;SDS011;4432;50.890;4.744;2022-08-27T13:01:09;3.03;;;1.33;;
8791;SDS011;4432;50.890;4.744;2022-08-27T13:03:55;1.50;;;1.30;;
8791;SDS011;4432;50.890;4.744;2022-08-27T13:06:26;1.97;;;1.20;;
8791;SDS011;4432;50.890;4.744;2022-08-27T13:08:58;2.00;;;1.60;;
8791;SDS011;4432;50.890;4.744;2022-08-27T13:11:29;1.97;;;1.23;;
8791;SDS011;4432;50.890;4.744;2022-08-27T13:14:10;1.77;;;1.43;;
8791;SDS011;4432;50.890;4.744;2022-08-27T13:16:44;3.00;;;1.50;;
8791;SDS011;4432;50.890;4.744;2022-08-27T13:19:17;2.43;;;1.40;;
8791;SDS011;4432;50.890;4.744;2022-08-27T13:21:49;2.20;;;1.40;;
8791;SDS011;4432;50.890;4.744;2022-08-27T13:24:30;2.07;;;1.30;;
8791;SDS011;4432;50.890;4.744;2022-08-27T13:27:02;1.53;;;1.20;;
8791;SDS011;4432;50.890;4.744;2022-08-27T13:29:29;1.43;;;1.30;;
8791;SDS011;4432;50.890;4.744;2022-08-27T13:31:55;2.03;;;1.40;;
8791;SDS011;4432;50.890;4.744;2022-08-27T13:34:24;1.40;;;1.30;;
8791;SDS011;4432;50.890;4.744;2022-08-27T13:36:56;2.17;;;1.30;;
8791;SDS011;4432;50.890;4.744;2022-08-27T13:39:23;5.13;;;1.57;;
8791;SDS011;4432;50.890;4.744;2022-08-27T13:41:50;3.07;;;1.47;;
8791;SDS011;4432;50.890;4.744;2022-08-27T13:44:26;1.50;;;1.40;;
8791;SDS011;4432;50.890;4.744;2022-08-27T13:47:02;1.50;;;1.40;;
8791;SDS011;4432;50.890;4.744;2022-08-27T13:49:31;2.47;;;1.30;;
8791;SDS011;4432;50.890;4.744;2022-08-27T13:54:48;1.83;;;1.50;;
8791;SDS011;4432;50.890;4.744;2022-08-27T13:57:30;1.50;;;1.40;;
8791;SDS011;4432;50.890;4.744;2022-08-27T14:02:43;2.73;;;1.60;;
8791;SDS011;4432;50.890;4.744;2022-08-27T14:05:25;1.63;;;1.43;;
8791;SDS011;4432;50.890;4.744;2022-08-27T14:13:23;1.77;;;1.33;;
8791;SDS011;4432;50.890;4.744;2022-08-27T14:15:55;3.00;;;1.50;;
8791;SDS011;4432;50.890;4.744;2022-08-27T14:21:02;1.53;;;1.43;;
8791;SDS011;4432;50.890;4.744;2022-08-27T14:23:29;1.97;;;1.50;;
8791;SDS011;4432;50.890;4.744;2022-08-27T14:25:57;2.97;;;1.80;;
8791;SDS011;4432;50.890;4.744;2022-08-27T14:28:25;4.60;;;1.53;;
8791;SDS011;4432;50.890;4.744;2022-08-27T14:30:51;2.43;;;1.27;;
8791;SDS011;4432;50.890;4.744;2022-08-27T14:33:17;3.57;;;1.67;;
8791;SDS011;4432;50.890;4.744;2022-08-27T14:35:43;3.53;;;1.50;;
8791;SDS011;4432;50.890;4.744;2022-08-27T14:40:46;2.13;;;1.30;;
8791;SDS011;4432;50.890;4.744;2022-08-27T14:43:14;5.70;;;1.60;;
8791;SDS011;4432;50.890;4.744;2022-08-27T14:45:40;1.70;;;1.60;;
8791;SDS011;4432;50.890;4.744;2022-08-27T14:48:10;3.73;;;1.50;;
8791;SDS011;4432;50.890;4.744;2022-08-27T14:50:41;1.40;;;1.30;;
8791;SDS011;4432;50.890;4.744;2022-08-27T14:53:07;4.40;;;1.63;;
8791;SDS011;4432;50.890;4.744;2022-08-27T14:55:33;1.30;;;1.20;;
8791;SDS011;4432;50.890;4.744;2022-08-27T14:57:59;4.77;;;1.80;;
8791;SDS011;4432;50.890;4.744;2022-08-27T15:00:25;6.47;;;1.50;;
8791;SDS011;4432;50.890;4.744;2022-08-27T15:02:51;3.80;;;1.77;;
8791;SDS011;4432;50.890;4.744;2022-08-27T15:05:20;3.47;;;1.70;;
8791;SDS011;4432;50.890;4.744;2022-08-27T15:07:45;7.30;;;1.73;;
8791;SDS011;4432;50.890;4.744;2022-08-27T15:10:11;3.63;;;1.33;;
8791;SDS011;4432;50.890;4.744;2022-08-27T15:12:38;2.13;;;1.30;;
8791;SDS011;4432;50.890;4.744;2022-08-27T15:15:04;2.30;;;1.30;;
8791;SDS011;4432;50.890;4.744;2022-08-27T15:17:31;5.77;;;1.40;;
8791;SDS011;4432;50.890;4.744;2022-08-27T15:19:57;5.80;;;1.63;;
8791;SDS011;4432;50.890;4.744;2022-08-27T15:22:23;1.70;;;1.60;;
8791;SDS011;4432;50.890;4.744;2022-08-27T15:24:57;2.10;;;1.50;;
8791;SDS011;4432;50.890;4.744;2022-08-27T15:27:25;4.47;;;1.67;;
8791;SDS011;4432;50.890;4.744;2022-08-27T15:29:53;4.17;;;1.60;;
8791;SDS011;4432;50.890;4.744;2022-08-27T15:32:22;1.60;;;1.50;;
8791;SDS011;4432;50.890;4.744;2022-08-27T15:34:59;1.20;;;1.10;;
8791;SDS011;4432;50.890;4.744;2022-08-27T15:37:29;3.20;;;1.53;;
8791;SDS011;4432;50.890;4.744;2022-08-27T15:39:55;3.17;;;1.57;;
8791;SDS011;4432;50.890;4.744;2022-08-27T15:42:21;2.47;;;1.50;;
8791;SDS011;4432;50.890;4.744;2022-08-27T15:44:51;1.50;;;1.40;;
8791;SDS011;4432;50.890;4.744;2022-08-27T15:47:19;2.40;;;1.63;;
8791;SDS011;4432;50.890;4.744;2022-08-27T15:49:45;1.57;;;1.47;;
8791;SDS011;4432;50.890;4.744;2022-08-27T15:52:12;1.40;;;1.23;;
8791;SDS011;4432;50.890;4.744;2022-08-27T15:54:40;3.30;;;1.73;;
8791;SDS011;4432;50.890;4.744;2022-08-27T15:57:07;2.20;;;1.30;;
8791;SDS011;4432;50.890;4.744;2022-08-27T15:59:33;3.43;;;1.80;;
8791;SDS011;4432;50.890;4.744;2022-08-27T16:01:59;3.50;;;1.70;;
8791;SDS011;4432;50.890;4.744;2022-08-27T16:04:26;1.70;;;1.30;;
8791;SDS011;4432;50.890;4.744;2022-08-27T16:06:52;2.40;;;1.50;;
8791;SDS011;4432;50.890;4.744;2022-08-27T16:09:19;3.67;;;1.40;;
8791;SDS011;4432;50.890;4.744;2022-08-27T16:11:45;1.57;;;1.30;;
8791;SDS011;4432;50.890;4.744;2022-08-27T16:14:12;2.77;;;1.80;;
8791;SDS011;4432;50.890;4.744;2022-08-27T16:16:39;5.70;;;1.70;;
8791;SDS011;4432;50.890;4.744;2022-08-27T16:19:08;2.80;;;1.60;;
8791;SDS011;4432;50.890;4.744;2022-08-27T16:21:34;2.57;;;1.90;;
8791;SDS011;4432;50.890;4.744;2022-08-27T16:24:01;3.93;;;1.40;;
8791;SDS011;4432;50.890;4.744;2022-08-27T16:26:27;4.67;;;1.30;;
8791;SDS011;4432;50.890;4.744;2022-08-27T16:28:53;2.30;;;1.67;;
8791;SDS011;4432;50.890;4.744;2022-08-27T16:31:19;2.40;;;1.47;;
8791;SDS011;4432;50.890;4.744;2022-08-27T16:33:46;3.13;;;1.50;;
8791;SDS011;4432;50.890;4.744;2022-08-27T16:36:12;3.20;;;1.33;;
8791;SDS011;4432;50.890;4.744;2022-08-27T16:38:38;2.67;;;1.50;;
8791;SDS011;4432;50.890;4.744;2022-08-27T16:41:04;1.43;;;1.33;;
8791;SDS011;4432;50.890;4.744;2022-08-27T16:43:30;4.77;;;1.60;;
8791;SDS011;4432;50.890;4.744;2022-08-27T16:45:57;2.10;;;1.90;;
8791;SDS011;4432;50.890;4.744;2022-08-27T16:48:24;3.17;;;1.60;;
8791;SDS011;4432;50.890;4.744;2022-08-27T16:51:13;3.23;;;1.40;;
8791;SDS011;4432;50.890;4.744;2022-08-27T16:54:00;1.77;;;1.50;;
8791;SDS011;4432;50.890;4.744;2022-08-27T16:56:28;7.30;;;1.67;;
8791;SDS011;4432;50.890;4.744;2022-08-27T16:58:54;2.10;;;1.53;;
8791;SDS011;4432;50.890;4.744;2022-08-27T17:01:20;1.27;;;1.17;;
8791;SDS011;4432;50.890;4.744;2022-08-27T17:03:48;1.97;;;1.60;;
8791;SDS011;4432;50.890;4.744;2022-08-27T17:06:20;2.57;;;1.70;;
8791;SDS011;4432;50.890;4.744;2022-08-27T17:08:47;2.93;;;1.40;;
8791;SDS011;4432;50.890;4.744;2022-08-27T17:11:26;1.73;;;1.60;;
8791;SDS011;4432;50.890;4.744;2022-08-27T17:13:55;3.70;;;1.30;;
8791;SDS011;4432;50.890;4.744;2022-08-27T17:16:23;2.63;;;1.67;;
8791;SDS011;4432;50.890;4.744;2022-08-27T17:18:50;2.03;;;1.40;;
8791;SDS011;4432;50.890;4.744;2022-08-27T17:21:16;1.97;;;1.30;;
8791;SDS011;4432;50.890;4.744;2022-08-27T17:23:45;6.07;;;1.43;;